Time;durP1;ratioP1;P1;durP2;ratioP2;P2;SDS_P1;SDS_P2;PMS_P1;PMS_P2;Temp;Humidity;BMP_temperature;BMP_pressure;BME280_temperature;BME280_humidity;BME280_pressure;Samples;Min_cycle;Max_cycle;Signal;HPM_P1;HPM_P2
2022/12/04 00:01:09;;;;;;;50.75;24.25;;;5.40;99.90;;;;;;5005624;28;20050;-86
2022/12/04 00:03:36;;;;;;;46.65;22.05;;;5.30;99.90;;;;;;5003401;28;20627;-86
2022/12/04 00:06:04;;;;;;;53.75;24.08;;;5.30;99.90;;;;;;5003923;28;20033;-86
2022/12/04 00:08:33;;;;;;;49.45;21.85;;;5.40;99.90;;;;;;4992744;28;20057;-86
2022/12/04 00:11:00;;;;;;;52.85;23.17;;;5.40;99.90;;;;;;5008309;28;20049;-86
2022/12/04 00:13:27;;;;;;;45.17;22.42;;;5.40;99.90;;;;;;5012293;28;20049;-86
2022/12/04 00:15:54;;;;;;;52.22;22.98;;;5.40;99.90;;;;;;5009035;28;20046;-86
2022/12/04 00:18:21;;;;;;;48.05;22.63;;;5.40;99.90;;;;;;5008410;28;20049;-86
2022/12/04 00:20:48;;;;;;;52.78;24.33;;;5.40;99.90;;;;;;5007833;28;20049;-86
2022/12/04 00:23:15;;;;;;;48.83;23.25;;;5.40;99.90;;;;;;5006595;28;20042;-86
2022/12/04 00:25:47;;;;;;;50.60;24.33;;;5.40;99.90;;;;;;5004520;28;20041;-86
2022/12/04 00:28:15;;;;;;;53.00;23.50;;;5.40;99.90;;;;;;5003721;28;20045;-86
2022/12/04 00:30:43;;;;;;;51.38;24.10;;;5.30;99.90;;;;;;5007804;28;20041;-86
2022/12/04 00:33:13;;;;;;;48.00;22.58;;;5.30;99.90;;;;;;4989509;28;20504;-86
2022/12/04 00:35:40;;;;;;;53.90;23.58;;;5.30;99.90;;;;;;4991082;28;20160;-86
2022/12/04 00:38:07;;;;;;;52.58;24.20;;;5.30;99.90;;;;;;5006925;28;20403;-86
2022/12/04 00:40:37;;;;;;;50.83;24.50;;;5.30;99.90;;;;;;5008201;28;20041;-86
2022/12/04 00:43:09;;;;;;;49.75;23.02;;;5.30;99.90;;;;;;5008461;28;20065;-86
2022/12/04 00:45:36;;;;;;;52.38;24.08;;;5.40;99.90;;;;;;4997696;28;20054;-86
2022/12/04 00:48:03;;;;;;;53.28;24.27;;;5.30;99.90;;;;;;5007311;28;20045;-86
2022/12/04 00:50:30;;;;;;;53.63;25.00;;;5.30;99.90;;;;;;5007356;28;20228;-85
2022/12/04 00:52:57;;;;;;;49.72;23.35;;;5.40;99.90;;;;;;5008547;28;20053;-86
2022/12/04 00:55:24;;;;;;;55.67;25.05;;;5.30;99.90;;;;;;5006817;28;20056;-86
2022/12/04 00:57:51;;;;;;;51.97;23.55;;;5.30;99.90;;;;;;5007271;28;20057;-86
2022/12/04 01:00:20;;;;;;;50.38;23.17;;;5.40;99.90;;;;;;5006206;28;20042;-85
2022/12/04 01:02:47;;;;;;;49.25;22.48;;;5.30;99.90;;;;;;4992517;28;20046;-86
2022/12/04 01:05:13;;;;;;;53.38;24.92;;;5.30;99.90;;;;;;5002978;28;20046;-86
2022/12/04 01:07:40;;;;;;;50.53;24.75;;;5.30;99.90;;;;;;5004893;28;20568;-86
2022/12/04 01:10:11;;;;;;;50.05;23.45;;;5.30;99.90;;;;;;5008160;28;20494;-86
2022/12/04 01:12:38;;;;;;;52.03;24.88;;;5.30;99.90;;;;;;4991019;28;20512;-86
2022/12/04 01:15:06;;;;;;;49.55;22.60;;;5.30;99.90;;;;;;5007484;28;20099;-87
2022/12/04 01:17:34;;;;;;;45.03;22.27;;;5.30;99.90;;;;;;5009081;28;20042;-86
2022/12/04 01:20:03;;;;;;;50.58;23.02;;;5.30;99.90;;;;;;4987664;28;20064;-86
2022/12/04 01:22:30;;;;;;;45.30;22.95;;;5.30;99.90;;;;;;5017148;28;20046;-86
2022/12/04 01:24:57;;;;;;;49.33;22.13;;;5.30;99.90;;;;;;5007593;28;20064;-86
2022/12/04 01:27:24;;;;;;;50.85;23.42;;;5.30;99.90;;;;;;5012612;28;20050;-86
2022/12/04 01:29:51;;;;;;;50.25;22.70;;;5.40;99.90;;;;;;5010626;28;20046;-86
2022/12/04 01:32:17;;;;;;;46.70;22.15;;;5.30;99.90;;;;;;5012480;28;20053;-86
2022/12/04 01:34:46;;;;;;;47.40;22.25;;;5.30;99.90;;;;;;5011223;28;20034;-86
2022/12/04 01:37:12;;;;;;;43.78;21.77;;;5.30;99.90;;;;;;5010267;28;20046;-86
2022/12/04 01:39:39;;;;;;;46.45;22.48;;;5.30;99.90;;;;;;5014924;28;20038;-86
2022/12/04 01:42:06;;;;;;;48.17;22.67;;;5.30;99.90;;;;;;5003878;28;20042;-86
2022/12/04 01:44:33;;;;;;;43.58;20.67;;;5.30;99.90;;;;;;5021598;23;20828;-78
2022/12/04 01:47:01;;;;;;;45.33;21.35;;;5.30;99.90;;;;;;4974820;28;20426;-78
2022/12/04 01:49:31;;;;;;;45.85;21.85;;;5.30;99.90;;;;;;4990479;28;20043;-78
2022/12/04 01:52:03;;;;;;;48.20;22.88;;;5.30;99.90;;;;;;4970730;28;20046;-78
2022/12/04 01:54:32;;;;;;;46.22;22.77;;;5.30;99.90;;;;;;4977904;28;20042;-78
2022/12/04 01:57:01;;;;;;;45.67;21.52;;;5.30;99.90;;;;;;4976113;28;20579;-78
2022/12/04 01:59:32;;;;;;;47.88;23.23;;;5.30;99.90;;;;;;4986128;28;20411;-78
2022/12/04 02:02:03;;;;;;;40.13;20.40;;;5.30;99.90;;;;;;4972386;28;20533;-78
2022/12/04 02:04:31;;;;;;;50.47;23.25;;;5.30;99.90;;;;;;4972061;28;20043;-78
2022/12/04 02:06:59;;;;;;;48.25;21.63;;;5.30;99.90;;;;;;4973269;28;20101;-78
2022/12/04 02:09:27;;;;;;;45.53;21.65;;;5.20;99.90;;;;;;4965176;28;20445;-77
2022/12/04 02:11:59;;;;;;;44.28;21.48;;;5.20;99.90;;;;;;4971542;28;20054;-78
2022/12/04 02:14:33;;;;;;;47.03;22.20;;;5.20;99.90;;;;;;4972109;28;20527;-78
2022/12/04 02:17:09;;;;;;;43.90;21.33;;;5.20;99.90;;;;;;4955045;28;20145;-78
2022/12/04 02:20:00;;;;;;;42.53;21.58;;;5.20;99.90;;;;;;4969783;28;20061;-78
2022/12/04 02:22:45;;;;;;;47.38;21.95;;;5.30;99.90;;;;;;4951225;28;20058;-78
2022/12/04 02:25:18;;;;;;;44.42;21.60;;;5.30;99.90;;;;;;4951607;29;20089;-78
2022/12/04 02:28:00;;;;;;;46.58;22.38;;;5.30;99.90;;;;;;4976492;28;20469;-78
2022/12/04 02:30:28;;;;;;;49.78;21.50;;;5.30;99.90;;;;;;4959611;28;20043;-78
2022/12/04 02:33:00;;;;;;;47.72;22.17;;;5.20;99.90;;;;;;4970894;28;20443;-79
2022/12/04 02:35:30;;;;;;;50.50;22.73;;;5.20;99.90;;;;;;4979717;28;20043;-79
2022/12/04 02:38:03;;;;;;;42.72;21.42;;;5.20;99.90;;;;;;4989784;28;20088;-79
2022/12/04 02:40:36;;;;;;;49.80;22.67;;;5.30;99.90;;;;;;4971857;28;20402;-79
2022/12/04 02:43:10;;;;;;;49.15;22.85;;;5.30;99.90;;;;;;4953947;28;20050;-78
2022/12/04 02:45:40;;;;;;;44.75;22.50;;;5.20;99.90;;;;;;4978098;28;20472;-79
2022/12/04 02:48:08;;;;;;;45.35;21.52;;;5.20;99.90;;;;;;4963747;28;20077;-79
2022/12/04 02:50:38;;;;;;;48.00;22.42;;;5.20;99.90;;;;;;4979451;28;20047;-79
2022/12/04 02:53:08;;;;;;;44.17;21.40;;;5.20;99.90;;;;;;4963612;28;20041;-79
2022/12/04 02:55:38;;;;;;;41.20;20.42;;;5.20;99.90;;;;;;4970722;28;20062;-79
2022/12/04 02:58:10;;;;;;;46.00;22.63;;;5.30;99.90;;;;;;4978246;28;20514;-79
2022/12/04 03:00:37;;;;;;;51.17;22.10;;;5.30;99.90;;;;;;4962240;28;20306;-79
2022/12/04 03:03:07;;;;;;;44.95;22.52;;;5.30;99.90;;;;;;4978704;28;20046;-79
2022/12/04 03:05:38;;;;;;;44.78;21.20;;;5.30;99.90;;;;;;4970038;28;20043;-79
2022/12/04 03:08:08;;;;;;;47.95;21.80;;;5.20;99.90;;;;;;4973147;28;20458;-79
2022/12/04 03:10:38;;;;;;;45.67;20.92;;;5.30;99.90;;;;;;4963080;28;20144;-79
2022/12/04 03:13:09;;;;;;;45.23;21.37;;;5.20;99.90;;;;;;4976834;28;20050;-79
2022/12/04 03:15:40;;;;;;;45.63;21.65;;;5.20;99.90;;;;;;4979703;28;20415;-79
2022/12/04 03:18:11;;;;;;;44.77;20.73;;;5.30;99.90;;;;;;4974273;28;20049;-79
2022/12/04 03:20:38;;;;;;;;;;;5.20;99.90;;;;;;4984391;28;20053;-79
2022/12/04 03:23:09;;;;;;;46.15;20.50;;;5.30;99.90;;;;;;4971263;28;19929;-79
2022/12/04 03:25:39;;;;;;;42.53;20.88;;;5.30;99.90;;;;;;4970298;28;20069;-79
2022/12/04 03:28:13;;;;;;;42.85;21.70;;;5.30;99.90;;;;;;4971647;28;20050;-79
2022/12/04 03:30:46;;;;;;;45.20;21.15;;;5.30;99.90;;;;;;4970473;28;20038;-79
2022/12/04 03:33:17;;;;;;;41.90;20.17;;;5.30;99.90;;;;;;4965793;28;20056;-79
2022/12/04 03:35:47;;;;;;;42.97;20.30;;;5.30;99.90;;;;;;4970801;28;20061;-79
2022/12/04 03:38:18;;;;;;;41.75;19.67;;;5.30;99.90;;;;;;4972024;28;20055;-79
2022/12/04 03:40:49;;;;;;;41.28;19.20;;;5.30;99.90;;;;;;4975784;28;20049;-79
2022/12/04 03:43:23;;;;;;;38.22;18.98;;;5.30;99.90;;;;;;4984929;28;20057;-79
2022/12/04 03:45:54;;;;;;;41.55;19.35;;;5.40;99.90;;;;;;4986446;28;20043;-79
2022/12/04 03:48:23;;;;;;;43.03;20.75;;;5.30;99.90;;;;;;4963520;28;20102;-79
2022/12/04 03:50:54;;;;;;;41.70;20.13;;;5.30;99.90;;;;;;4992338;28;20502;-79
2022/12/04 03:53:22;;;;;;;;;;;5.30;99.90;;;;;;4972070;28;20054;-79
2022/12/04 03:55:52;;;;;;;41.70;19.63;;;5.30;99.90;;;;;;4979941;28;19933;-79
2022/12/04 03:58:25;;;;;;;42.92;20.63;;;5.30;99.90;;;;;;4988046;28;20056;-79
2022/12/04 04:00:53;;;;;;;41.63;19.35;;;5.30;99.90;;;;;;4969696;28;20061;-79
2022/12/04 04:03:22;;;;;;;37.28;19.10;;;5.30;99.90;;;;;;4970369;28;20057;-79
2022/12/04 04:05:53;;;;;;;39.17;19.23;;;5.30;99.90;;;;;;4951475;28;20587;-79
2022/12/04 04:08:26;;;;;;;37.45;18.25;;;5.30;99.90;;;;;;4973403;28;20133;-79
2022/12/04 04:10:56;;;;;;;39.90;19.25;;;5.30;99.90;;;;;;4982758;28;20078;-79
2022/12/04 04:24:39;;;;;;;37.75;18.27;;;5.30;99.90;;;;;;4963398;28;20499;-79
2022/12/04 04:27:06;;;;;;;36.25;18.38;;;5.30;99.90;;;;;;4968895;28;20042;-79
2022/12/04 04:29:34;;;;;;;35.63;17.00;;;5.30;99.90;;;;;;4988611;28;20105;-78
2022/12/04 04:32:06;;;;;;;35.13;17.08;;;5.30;99.90;;;;;;4969882;28;20038;-79
2022/12/04 04:34:41;;;;;;;34.50;16.73;;;5.30;99.90;;;;;;4970246;28;20043;-79
2022/12/04 04:37:13;;;;;;;34.75;16.85;;;5.30;99.90;;;;;;4971385;28;20551;-79
2022/12/04 04:39:45;;;;;;;33.90;16.95;;;5.30;99.90;;;;;;4975273;28;20141;-79
2022/12/04 04:42:16;;;;;;;31.25;16.80;;;5.30;99.90;;;;;;4965047;28;20039;-79
2022/12/04 04:44:50;;;;;;;31.92;16.02;;;5.30;99.90;;;;;;4975484;28;20495;-79
2022/12/04 04:47:20;;;;;;;36.67;16.50;;;5.30;99.90;;;;;;4970882;28;20055;-79
2022/12/04 04:49:49;;;;;;;31.80;15.20;;;5.30;99.90;;;;;;4968828;28;20522;-79
2022/12/04 04:52:17;;;;;;;30.70;16.05;;;5.30;99.90;;;;;;4979317;28;20056;-79
2022/12/04 04:54:45;;;;;;;34.75;16.73;;;5.30;99.90;;;;;;4989236;28;20034;-79
2022/12/04 04:57:12;;;;;;;29.95;15.75;;;5.30;99.90;;;;;;4974658;28;20049;-79
2022/12/04 04:59:39;;;;;;;32.65;16.23;;;5.30;99.90;;;;;;4968743;28;20047;-79
2022/12/04 05:02:07;;;;;;;32.60;15.80;;;5.30;99.90;;;;;;4973210;28;20047;-79
2022/12/04 05:04:34;;;;;;;32.15;16.23;;;5.40;99.90;;;;;;4972590;28;20042;-78
2022/12/04 05:07:00;;;;;;;34.30;15.98;;;5.40;99.90;;;;;;4973765;28;20054;-79
2022/12/04 05:09:27;;;;;;;33.35;16.75;;;5.40;99.90;;;;;;4967985;28;20109;-79
2022/12/04 05:11:54;;;;;;;29.55;15.18;;;5.30;99.90;;;;;;4973561;28;20447;-79
2022/12/04 05:14:21;;;;;;;29.58;15.80;;;5.30;99.90;;;;;;4960453;28;20465;-79
2022/12/04 05:16:48;;;;;;;31.92;16.45;;;5.30;99.90;;;;;;4969334;28;20046;-79
2022/12/04 05:22:01;;;;;;;29.52;15.75;;;5.30;99.90;;;;;;4974150;28;20054;-79
2022/12/04 05:24:27;;;;;;;30.38;15.15;;;5.30;99.90;;;;;;4972210;28;20039;-79
2022/12/04 05:26:54;;;;;;;32.35;15.27;;;5.30;99.90;;;;;;4983797;28;20129;-79
2022/12/04 05:29:21;;;;;;;32.05;16.70;;;5.30;99.90;;;;;;4993068;28;20413;-78
2022/12/04 05:31:48;;;;;;;29.42;15.95;;;5.30;99.90;;;;;;4973203;28;20062;-79
2022/12/04 05:34:19;;;;;;;30.67;15.35;;;5.30;99.90;;;;;;4961480;28;20047;-79
2022/12/04 05:36:46;;;;;;;;;;;5.30;99.90;;;;;;4992859;28;20170;-79
2022/12/04 05:39:13;;;;;;;35.45;15.88;;;5.20;99.90;;;;;;4994187;28;20725;-79
2022/12/04 05:41:40;;;;;;;32.30;16.92;;;5.20;99.90;;;;;;4983313;28;20542;-78
2022/12/04 05:44:16;;;;;;;30.27;15.25;;;5.20;99.90;;;;;;4981115;28;20046;-79
2022/12/04 05:46:43;;;;;;;31.35;15.88;;;5.20;99.90;;;;;;4975697;28;20066;-79
2022/12/04 05:49:10;;;;;;;32.38;16.13;;;5.20;99.90;;;;;;4971312;28;20031;-78
2022/12/04 05:51:38;;;;;;;31.38;15.95;;;5.20;99.90;;;;;;4972249;28;20046;-79
2022/12/04 05:54:05;;;;;;;32.83;15.88;;;5.10;99.90;;;;;;4973688;28;20126;-79
2022/12/04 05:56:32;;;;;;;32.22;16.08;;;5.30;99.90;;;;;;4974237;28;20047;-79
2022/12/04 05:58:59;;;;;;;33.53;16.45;;;5.30;99.90;;;;;;4957500;28;20591;-79
2022/12/04 06:01:26;;;;;;;32.63;16.80;;;5.30;99.90;;;;;;4979788;28;20047;-82
2022/12/04 06:03:53;;;;;;;33.40;16.60;;;5.20;99.90;;;;;;4971942;28;20053;-82
2022/12/04 06:06:22;;;;;;;32.45;16.17;;;5.20;99.90;;;;;;4975178;28;20363;-81
2022/12/04 06:08:51;;;;;;;28.33;15.30;;;5.30;99.90;;;;;;4976930;28;20047;-81
2022/12/04 06:11:20;;;;;;;32.83;16.45;;;5.30;99.90;;;;;;4969743;28;20045;-81
2022/12/04 06:13:47;;;;;;;31.77;16.65;;;5.30;99.90;;;;;;4973789;28;20047;-80
2022/12/04 06:16:15;;;;;;;33.72;17.05;;;5.30;99.90;;;;;;4991992;28;20546;-80
2022/12/04 06:18:42;;;;;;;30.35;16.10;;;5.40;99.90;;;;;;4985356;28;20046;-79
2022/12/04 06:21:09;;;;;;;31.13;16.17;;;5.40;99.90;;;;;;4971891;28;20057;-78
2022/12/04 06:23:36;;;;;;;30.75;15.35;;;5.40;99.90;;;;;;4969922;28;20047;-78
2022/12/04 06:26:06;;;;;;;31.42;15.45;;;5.30;99.90;;;;;;4974055;28;20483;-77
2022/12/04 06:28:33;;;;;;;27.40;14.27;;;5.30;99.90;;;;;;4973523;28;20046;-77
2022/12/04 06:31:02;;;;;;;28.20;14.55;;;5.30;99.90;;;;;;4979954;28;20039;-77
2022/12/04 06:33:29;;;;;;;28.10;14.32;;;5.20;99.90;;;;;;4971916;28;20571;-77
2022/12/04 06:36:00;;;;;;;25.48;14.02;;;5.20;99.90;;;;;;4972359;28;20046;-77
2022/12/04 06:38:27;;;;;;;28.73;14.65;;;5.10;99.90;;;;;;4966353;28;20051;-77
2022/12/04 06:40:53;;;;;;;27.20;14.07;;;5.00;99.90;;;;;;4988402;28;20042;-77
2022/12/04 06:43:22;;;;;;;28.25;14.60;;;5.00;99.90;;;;;;4971331;28;20504;-78
2022/12/04 06:45:49;;;;;;;25.67;14.07;;;5.00;99.90;;;;;;4971998;28;20085;-77
2022/12/04 06:48:16;;;;;;;26.13;13.82;;;5.10;99.90;;;;;;4970892;28;20046;-77
2022/12/04 06:50:42;;;;;;;25.13;13.95;;;5.10;99.90;;;;;;4972554;28;20050;-77
2022/12/04 06:53:09;;;;;;;28.60;15.23;;;5.20;99.90;;;;;;4971732;28;20043;-77
2022/12/04 06:55:36;;;;;;;26.55;14.05;;;5.10;99.90;;;;;;4977515;28;20038;-77
2022/12/04 06:58:03;;;;;;;25.02;14.48;;;5.10;99.90;;;;;;4960694;28;20051;-77
2022/12/04 07:00:31;;;;;;;26.55;13.65;;;5.10;99.90;;;;;;4974576;28;20047;-77
2022/12/04 07:02:58;;;;;;;26.23;14.15;;;5.10;99.90;;;;;;4975298;28;20051;-78
2022/12/04 07:05:27;;;;;;;24.42;13.02;;;5.10;99.90;;;;;;4970752;28;20050;-77
2022/12/04 07:07:54;;;;;;;26.40;13.80;;;5.10;99.90;;;;;;4981567;28;20081;-78
2022/12/04 07:10:21;;;;;;;26.00;12.98;;;5.10;99.90;;;;;;4974972;28;20463;-78
2022/12/04 07:12:47;;;;;;;22.75;13.18;;;5.10;99.90;;;;;;4967486;28;20047;-77
2022/12/04 07:15:14;;;;;;;24.60;13.52;;;5.10;99.90;;;;;;4975544;28;20384;-77
2022/12/04 07:17:43;;;;;;;22.17;12.80;;;5.20;99.90;;;;;;4979071;28;20042;-78
2022/12/04 07:20:11;;;;;;;22.00;12.68;;;5.20;99.90;;;;;;4971041;28;20046;-77
2022/12/04 07:22:37;;;;;;;21.98;12.05;;;5.20;99.90;;;;;;4968492;28;20050;-77
2022/12/04 07:25:05;;;;;;;21.15;12.55;;;5.20;99.90;;;;;;4981995;28;20041;-77
2022/12/04 07:27:32;;;;;;;22.10;11.80;;;5.20;99.90;;;;;;4964832;28;20039;-78
2022/12/04 07:29:59;;;;;;;22.33;12.60;;;5.20;99.90;;;;;;4970492;28;20080;-77
2022/12/04 07:32:26;;;;;;;21.35;11.85;;;5.30;99.90;;;;;;4950965;28;20051;-77
2022/12/04 07:34:54;;;;;;;20.27;11.98;;;5.30;99.90;;;;;;4971034;28;20057;-77
2022/12/04 07:37:21;;;;;;;22.70;11.15;;;5.30;99.90;;;;;;4969879;28;20538;-77
2022/12/04 07:39:48;;;;;;;22.27;12.50;;;5.30;99.90;;;;;;4969591;28;20038;-77
2022/12/04 07:42:14;;;;;;;21.75;11.45;;;5.30;99.90;;;;;;4967328;28;20061;-77
2022/12/04 07:44:41;;;;;;;22.13;11.48;;;5.20;99.90;;;;;;4988078;23;20275;-78
2022/12/04 07:47:08;;;;;;;19.65;11.27;;;5.30;99.90;;;;;;5009747;28;20045;-78
2022/12/04 07:49:35;;;;;;;20.40;11.45;;;5.30;99.90;;;;;;5008676;28;20064;-78
2022/12/04 07:52:04;;;;;;;23.02;12.13;;;5.30;99.90;;;;;;5008873;28;20046;-78
2022/12/04 07:54:31;;;;;;;23.30;12.57;;;5.30;99.90;;;;;;5008333;28;20045;-78
2022/12/04 07:56:58;;;;;;;20.75;11.95;;;5.30;99.90;;;;;;5009189;28;20048;-79
2022/12/04 07:59:25;;;;;;;22.20;12.75;;;5.30;99.90;;;;;;5003237;28;21143;-78
2022/12/04 08:01:52;;;;;;;24.25;12.55;;;5.30;99.90;;;;;;4999276;28;20046;-80
2022/12/04 08:04:18;;;;;;;21.42;12.57;;;5.30;99.90;;;;;;5004276;28;20392;-81
2022/12/04 08:06:45;;;;;;;22.33;12.57;;;5.30;99.90;;;;;;5007789;28;20042;-80
2022/12/04 08:09:13;;;;;;;24.30;12.95;;;5.30;99.90;;;;;;5021046;28;20612;-81
2022/12/04 08:11:41;;;;;;;21.77;12.35;;;5.30;99.90;;;;;;5006754;28;20080;-78
2022/12/04 08:14:08;;;;;;;26.20;13.60;;;5.30;99.90;;;;;;5008335;28;20502;-78
2022/12/04 08:16:35;;;;;;;21.15;12.15;;;5.30;99.90;;;;;;5008037;28;20046;-78
2022/12/04 08:19:02;;;;;;;22.90;12.65;;;5.40;99.90;;;;;;5006442;28;20298;-79
2022/12/04 08:21:31;;;;;;;22.60;12.68;;;5.40;99.90;;;;;;5017605;28;20095;-76
2022/12/04 08:24:00;;;;;;;23.70;12.30;;;5.40;99.90;;;;;;4995540;28;20054;-78
2022/12/04 08:26:30;;;;;;;21.25;12.38;;;5.40;99.90;;;;;;5009431;28;20041;-79
2022/12/04 08:29:00;;;;;;;25.27;13.15;;;5.40;99.90;;;;;;5003418;28;21681;-78
2022/12/04 08:31:29;;;;;;;23.05;12.35;;;5.40;99.90;;;;;;5009454;28;20053;-79
2022/12/04 08:33:57;;;;;;;22.63;12.63;;;5.40;99.90;;;;;;5003909;28;20046;-78
2022/12/04 08:36:24;;;;;;;20.48;11.90;;;5.40;99.90;;;;;;5017689;28;20045;-77
2022/12/04 08:38:52;;;;;;;23.33;13.13;;;5.40;99.90;;;;;;5006454;28;20042;-77
2022/12/04 08:41:22;;;;;;;20.55;12.40;;;5.40;99.90;;;;;;5007328;28;20418;-77
2022/12/04 08:43:50;;;;;;;22.38;12.57;;;5.40;99.90;;;;;;5005376;28;20042;-77
2022/12/04 08:46:18;;;;;;;21.95;12.82;;;5.50;99.90;;;;;;5007810;28;20124;-77
2022/12/04 08:48:45;;;;;;;25.13;13.38;;;5.50;99.90;;;;;;5009112;28;20054;-77
2022/12/04 08:51:14;;;;;;;24.17;13.77;;;5.40;99.90;;;;;;5011692;28;20464;-77
2022/12/04 08:53:42;;;;;;;24.98;13.40;;;5.40;99.90;;;;;;5010812;28;20042;-78
2022/12/04 08:56:09;;;;;;;23.02;12.77;;;5.40;99.90;;;;;;5008262;28;20038;-76
2022/12/04 08:58:36;;;;;;;24.45;13.13;;;5.40;99.90;;;;;;5008882;28;20042;-77
2022/12/04 09:01:09;;;;;;;22.95;12.98;;;5.40;99.90;;;;;;5008901;28;20042;-77
2022/12/04 09:03:36;;;;;;;23.52;13.02;;;5.40;99.90;;;;;;5007967;28;20129;-76
2022/12/04 09:06:04;;;;;;;22.40;12.68;;;5.40;99.90;;;;;;4987518;28;20056;-76
2022/12/04 09:08:32;;;;;;;23.33;13.27;;;5.40;99.90;;;;;;5008959;28;20049;-76
2022/12/04 09:11:03;;;;;;;22.73;13.35;;;5.40;99.90;;;;;;5010916;28;20129;-76
2022/12/04 09:13:30;;;;;;;24.90;13.18;;;5.40;99.90;;;;;;5007797;28;20046;-76
2022/12/04 09:15:57;;;;;;;24.73;12.57;;;5.50;99.90;;;;;;5013968;28;20076;-76
2022/12/04 09:18:25;;;;;;;23.80;12.73;;;5.50;99.90;;;;;;5019448;28;20053;-76
2022/12/04 09:20:56;;;;;;;25.95;13.40;;;5.40;99.90;;;;;;5016601;28;20042;-76
2022/12/04 09:23:23;;;;;;;;;;;5.50;99.90;;;;;;5006634;28;20601;-76
2022/12/04 09:25:50;;;;;;;26.00;13.35;;;5.50;99.90;;;;;;5006169;28;19925;-76
2022/12/04 09:28:17;;;;;;;23.52;13.52;;;5.50;99.90;;;;;;5002222;28;20050;-76
2022/12/04 09:30:43;;;;;;;24.77;13.90;;;5.50;99.90;;;;;;5008881;28;20057;-76
2022/12/04 09:33:10;;;;;;;24.67;12.93;;;5.50;99.90;;;;;;5007253;28;20425;-76
2022/12/04 09:35:39;;;;;;;27.45;14.35;;;5.50;99.90;;;;;;4990851;28;20511;-77
2022/12/04 09:38:06;;;;;;;26.17;14.20;;;5.50;99.90;;;;;;5004568;28;20065;-76
2022/12/04 09:40:41;;;;;;;25.90;13.55;;;5.50;99.90;;;;;;5007761;28;20409;-76
2022/12/04 09:43:14;;;;;;;27.23;13.70;;;5.50;99.90;;;;;;5000135;28;20048;-76
2022/12/04 09:45:44;;;;;;;24.42;13.60;;;5.50;99.90;;;;;;5010328;28;20504;-76
2022/12/04 09:48:16;;;;;;;25.88;14.15;;;5.50;99.90;;;;;;5012080;28;20417;-76
2022/12/04 09:50:45;;;;;;;26.65;14.60;;;5.50;99.90;;;;;;5000115;28;20536;-77
2022/12/04 09:53:18;;;;;;;23.73;13.40;;;5.40;99.90;;;;;;5010607;28;20042;-77
2022/12/04 09:55:56;;;;;;;26.15;14.07;;;5.30;99.90;;;;;;5005644;28;20038;-76
2022/12/04 09:58:28;;;;;;;26.73;14.52;;;5.40;99.90;;;;;;5031769;28;20429;-76
2022/12/04 10:00:56;;;;;;;26.80;14.75;;;5.40;99.90;;;;;;5026282;28;20433;-76
2022/12/04 10:03:26;;;;;;;27.08;14.70;;;5.30;99.90;;;;;;5005557;28;20561;-76
2022/12/04 10:05:58;;;;;;;26.37;14.23;;;5.40;99.90;;;;;;5010128;28;20048;-77
2022/12/04 10:08:28;;;;;;;28.42;15.15;;;5.30;99.90;;;;;;4994182;28;20145;-76
2022/12/04 10:11:03;;;;;;;26.80;14.90;;;5.40;99.90;;;;;;5007413;28;20688;-76
2022/12/04 10:14:10;;;;;;;28.88;15.50;;;5.40;99.90;;;;;;5010781;28;20042;-76
2022/12/04 10:16:46;;;;;;;27.70;14.45;;;5.50;99.90;;;;;;4985510;28;20054;-76
2022/12/04 10:19:15;;;;;;;29.40;15.27;;;5.50;99.90;;;;;;5004810;28;20127;-76
2022/12/04 10:21:52;;;;;;;28.00;14.77;;;5.50;99.90;;;;;;5011006;28;20060;-76
2022/12/04 10:24:36;;;;;;;26.13;14.00;;;5.50;99.90;;;;;;5010279;28;20578;-76
2022/12/04 10:27:09;;;;;;;28.10;14.27;;;5.60;99.90;;;;;;5009147;28;20046;-77
2022/12/04 10:29:37;;;;;;;27.92;14.70;;;5.50;99.90;;;;;;5008670;28;20048;-77
2022/12/04 10:32:16;;;;;;;29.83;15.98;;;5.60;99.90;;;;;;5007805;28;20042;-78
2022/12/04 10:34:44;;;;;;;29.85;14.88;;;5.60;99.90;;;;;;5009830;28;20072;-78
2022/12/04 10:37:14;;;;;;;28.70;15.77;;;5.60;99.90;;;;;;5008620;28;20108;-79
2022/12/04 10:39:44;;;;;;;28.20;15.65;;;5.60;99.90;;;;;;5004525;28;20069;-78
2022/12/04 10:42:24;;;;;;;29.57;14.83;;;5.60;99.90;;;;;;4993916;28;20046;-77
2022/12/04 10:44:51;;;;;;;30.17;15.43;;;5.60;99.90;;;;;;4998787;28;20127;-78
2022/12/04 10:47:18;;;;;;;28.08;14.70;;;5.60;99.90;;;;;;4998618;28;20037;-77
2022/12/04 10:49:45;;;;;;;30.15;15.57;;;5.60;99.90;;;;;;5007227;28;20066;-78
2022/12/04 10:52:13;;;;;;;29.30;14.45;;;5.60;99.90;;;;;;5007191;28;20046;-78
2022/12/04 10:54:47;;;;;;;28.13;14.52;;;5.70;99.90;;;;;;5003369;28;20085;-78
2022/12/04 10:57:15;;;;;;;29.67;15.18;;;5.60;99.90;;;;;;4997129;28;20096;-78
2022/12/04 10:59:49;;;;;;;30.45;15.68;;;5.60;99.90;;;;;;5003716;28;20042;-78
2022/12/04 11:02:20;;;;;;;28.38;15.98;;;5.60;99.90;;;;;;5001136;28;20038;-78
2022/12/04 11:04:52;;;;;;;26.77;14.95;;;5.70;99.90;;;;;;5005530;28;20046;-78
2022/12/04 11:07:23;;;;;;;29.13;15.55;;;5.70;99.90;;;;;;5003157;28;20038;-78
2022/12/04 11:09:57;;;;;;;28.55;14.57;;;5.70;99.90;;;;;;5003086;28;20068;-78
2022/12/04 11:12:25;;;;;;;28.75;16.45;;;5.70;99.90;;;;;;5001269;28;20046;-78
2022/12/04 11:15:00;;;;;;;29.50;15.93;;;5.70;99.90;;;;;;5006653;28;20050;-79
2022/12/04 11:17:27;;;;;;;31.35;15.95;;;5.60;99.90;;;;;;4994990;28;20082;-77
2022/12/04 11:20:00;;;;;;;28.45;15.60;;;5.60;99.90;;;;;;5005229;28;20137;-77
2022/12/04 11:22:28;;;;;;;30.27;16.25;;;5.70;99.90;;;;;;4998748;28;20556;-77
2022/12/04 11:24:57;;;;;;;32.42;16.60;;;5.70;99.90;;;;;;5005287;28;20057;-77
2022/12/04 11:27:27;;;;;;;29.58;16.60;;;5.70;99.90;;;;;;5006527;28;20083;-78
2022/12/04 11:29:54;;;;;;;28.70;15.23;;;5.60;99.90;;;;;;5007807;28;20057;-77
2022/12/04 11:32:23;;;;;;;31.17;16.00;;;5.60;99.90;;;;;;4990693;28;20045;-76
2022/12/04 11:34:51;;;;;;;31.15;16.20;;;5.70;99.90;;;;;;5002403;28;20049;-78
2022/12/04 11:37:21;;;;;;;31.52;15.98;;;5.70;99.90;;;;;;5009474;28;20049;-77
2022/12/04 11:39:50;;;;;;;31.35;16.48;;;5.70;99.90;;;;;;5002878;28;20052;-77
2022/12/04 11:42:22;;;;;;;31.27;16.27;;;5.70;99.90;;;;;;5008895;28;20042;-77
2022/12/04 11:44:51;;;;;;;30.40;16.30;;;5.70;99.90;;;;;;5000672;28;20108;-78
2022/12/04 11:47:20;;;;;;;33.00;16.85;;;5.70;99.90;;;;;;5007003;28;20096;-78
2022/12/04 11:50:02;;;;;;;30.05;15.82;;;5.70;99.90;;;;;;5009759;28;20528;-79
2022/12/04 11:52:36;;;;;;;35.83;17.83;;;5.60;99.90;;;;;;5000606;28;20144;-79
2022/12/04 11:55:13;;;;;;;33.75;17.23;;;5.70;99.90;;;;;;5009134;28;20052;-78
2022/12/04 11:57:47;;;;;;;32.13;16.55;;;5.70;99.90;;;;;;5009911;28;20037;-78
2022/12/04 12:00:15;;;;;;;35.03;17.83;;;5.70;99.90;;;;;;5009822;28;20060;-79
2022/12/04 12:03:03;;;;;;;32.33;17.52;;;5.70;99.90;;;;;;5008959;28;20042;-78
2022/12/04 12:05:52;;;;;;;32.38;16.55;;;5.70;99.90;;;;;;5004171;28;20086;-79
2022/12/04 12:08:25;;;;;;;31.48;16.98;;;5.80;99.90;;;;;;4982066;28;20166;-81
2022/12/04 12:10:58;;;;;;;33.30;17.83;;;5.80;99.90;;;;;;5006822;28;20156;-81
2022/12/04 12:13:32;;;;;;;39.08;18.60;;;5.80;99.90;;;;;;4986774;28;20050;-80
2022/12/04 12:16:06;;;;;;;34.85;17.55;;;5.80;99.90;;;;;;4988453;28;20108;-80
2022/12/04 12:18:43;;;;;;;34.10;18.63;;;5.80;99.90;;;;;;5005058;28;20124;-81
2022/12/04 12:21:16;;;;;;;35.45;17.60;;;5.80;99.90;;;;;;5002308;28;20084;-79
2022/12/04 12:23:55;;;;;;;33.28;16.33;;;5.70;99.90;;;;;;5010560;28;20050;-80
2022/12/04 12:26:27;;;;;;;32.95;17.48;;;5.80;99.90;;;;;;5006975;28;20402;-80
2022/12/04 12:29:10;;;;;;;35.47;17.25;;;5.80;99.90;;;;;;5012930;28;20057;-80
2022/12/04 12:31:56;;;;;;;35.72;17.13;;;5.80;99.90;;;;;;5005896;28;20045;-81
2022/12/04 12:34:31;;;;;;;32.63;16.95;;;5.80;99.90;;;;;;5002010;28;20141;-82
2022/12/04 12:37:00;;;;;;;33.90;17.60;;;5.80;99.90;;;;;;5009125;28;20069;-80
2022/12/04 12:39:35;;;;;;;35.63;17.65;;;5.80;99.90;;;;;;4999479;28;20058;-79
2022/12/04 12:42:04;;;;;;;31.85;16.98;;;5.90;99.90;;;;;;5010223;28;20037;-80
2022/12/04 12:44:37;;;;;;;33.50;17.35;;;5.90;99.90;;;;;;5008627;28;20038;-79
2022/12/04 12:47:07;;;;;;;34.80;17.83;;;5.90;99.90;;;;;;4998777;28;20044;-79
2022/12/04 12:49:38;;;;;;;32.38;16.70;;;5.90;99.90;;;;;;5007123;28;20039;-79
2022/12/04 12:52:11;;;;;;;30.30;16.52;;;5.90;99.90;;;;;;5006598;28;20056;-79
2022/12/04 12:54:43;;;;;;;31.60;16.20;;;5.90;99.90;;;;;;4995199;28;20100;-88
2022/12/04 12:57:14;;;;;;;31.55;16.48;;;5.90;99.90;;;;;;5007111;28;20040;-84
2022/12/04 12:59:45;;;;;;;29.88;16.35;;;5.90;99.90;;;;;;5013833;28;20220;-80
2022/12/04 13:02:22;;;;;;;30.80;16.58;;;5.90;99.90;;;;;;5005877;28;20120;-78
2022/12/04 13:04:51;;;;;;;34.42;16.55;;;5.90;99.90;;;;;;5008118;28;20120;-77